Current | Forecast
Updated: 3:30 AM +07 on May 01, 2017
Observed at Krasnoyarsk, Russia
Temperature 34°F
Windchill 25°F
Humidity 93%
Dew Point 32°F
Wind WSW at 11 mph
Pressure 29.98 in (Steady)
Conditions Scattered Clouds
Visibility 6.2 miles
UV 0 out of 16
Clouds Scattered Clouds (SCT) : 3300 ft
Yesterday's Maximum 50°F
Yesterday's Minimum 37°F approx.
Yesterday's Heating Degree Days 21 approx.
Sunrise5:04 AM +07
Sunset8:31 PM +07
Moon Rise9:11 AM +07
Moon Set1:01 AM +07
Moon PhaseMoon Phase
Waxing Crescent
Raw METARMETAR UNKL 302030Z 24005MPS 9999 SCT033CB 01/M00 Q1015 R29/CLRD65 NOSIG RMK QFE735


Monday
. High: 42° F.
Tuesday
. High: 46° F.
Wednesday
. High: 42° F.
Thursday
. High: 48° F.
Friday
. High: 55° F.
Saturday
. High: 62° F.
Sunday
. High: 71° F.
Monday
. High: 73° F.

Units: English | Metric

Find the Weather for any City, State or Zipcode, or Country:

U.S. State List | Severe Weather | Tropical Storms | Ski Conditions
United States | Canada | Central America | South America | Asia | Europe | Australia | Africa | Islands

Weather Underground

© Copyright 2017
The Weather Company, LLC